Time;durP1;ratioP1;P1;durP2;ratioP2;P2;SDS_P1;SDS_P2;PMS_P1;PMS_P2;Temp;Humidity;BMP_temperature;BMP_pressure;BME280_temperature;BME280_humidity;BME280_pressure;Samples;Min_cycle;Max_cycle;Signal;HPM_P1;HPM_P2
2022/09/02 00:01:47;;;;;;;4.70;0.90;;;14.10;99.90;;;;;;5023022;28;20045;-70
2022/09/02 00:04:17;;;;;;;1.98;0.75;;;14.20;99.90;;;;;;5019968;28;20048;-70
2022/09/02 00:06:45;;;;;;;2.38;0.90;;;14.10;99.90;;;;;;5027816;28;20041;-71
2022/09/02 00:09:14;;;;;;;1.90;0.93;;;14.10;99.90;;;;;;5042497;28;20164;-70
2022/09/02 00:11:41;;;;;;;1.80;0.82;;;14.10;99.90;;;;;;5043859;28;20048;-70
2022/09/02 00:14:11;;;;;;;1.23;0.90;;;14.00;99.90;;;;;;5022573;28;20654;-70
2022/09/02 00:16:38;;;;;;;1.40;1.05;;;14.00;99.90;;;;;;5009084;28;20049;-70
2022/09/02 00:19:04;;;;;;;2.30;0.77;;;14.00;99.90;;;;;;5023458;28;20049;-70
2022/09/02 00:21:33;;;;;;;3.28;0.93;;;14.00;99.90;;;;;;5025041;28;20186;-70
2022/09/02 00:24:04;;;;;;;1.60;0.85;;;14.00;99.90;;;;;;5020937;28;20037;-70
2022/09/02 00:26:30;;;;;;;1.55;0.95;;;13.90;99.90;;;;;;5012529;28;20045;-70
2022/09/02 00:28:56;;;;;;;1.23;0.80;;;13.80;99.90;;;;;;5039050;28;20045;-70
2022/09/02 00:31:23;;;;;;;1.23;0.80;;;13.70;99.90;;;;;;5022449;28;20053;-70
2022/09/02 00:33:50;;;;;;;2.00;0.88;;;13.70;99.90;;;;;;5020226;28;20123;-70
2022/09/02 00:36:15;;;;;;;2.60;0.70;;;13.70;99.90;;;;;;5031470;28;20037;-70
2022/09/02 00:38:41;;;;;;;2.05;0.95;;;13.60;99.90;;;;;;5016615;28;20409;-70
2022/09/02 00:41:09;;;;;;;2.40;0.95;;;13.60;99.90;;;;;;5009072;28;20049;-70
2022/09/02 00:43:52;;;;;;;1.80;0.90;;;13.60;99.90;;;;;;5041923;28;20496;-70
2022/09/02 00:46:20;;;;;;;3.42;1.20;;;13.50;99.90;;;;;;5031635;28;20504;-70
2022/09/02 00:49:11;;;;;;;1.80;0.93;;;13.50;99.90;;;;;;5036202;28;20041;-70
2022/09/02 00:52:06;;;;;;;1.45;1.10;;;13.30;99.90;;;;;;5019966;28;20496;-70
2022/09/02 00:54:37;;;;;;;3.40;0.98;;;13.30;99.90;;;;;;4999458;28;20056;-70
2022/09/02 00:57:08;;;;;;;2.67;0.90;;;13.30;99.90;;;;;;5026332;28;20925;-68
2022/09/02 00:59:52;;;;;;;2.20;1.00;;;13.20;99.90;;;;;;5004984;28;20120;-70
2022/09/02 01:02:18;;;;;;;1.73;0.80;;;13.30;99.90;;;;;;5017971;28;20041;-69
2022/09/02 01:04:45;;;;;;;1.25;0.88;;;13.20;99.90;;;;;;5040763;28;20045;-70
2022/09/02 01:07:11;;;;;;;1.40;1.00;;;13.30;99.90;;;;;;4991896;28;20138;-69
2022/09/02 01:09:38;;;;;;;3.17;1.30;;;13.20;99.90;;;;;;5023943;28;20076;-70
2022/09/02 01:12:04;;;;;;;2.45;1.00;;;13.20;99.90;;;;;;5007207;28;20450;-70
2022/09/02 01:14:30;;;;;;;2.17;0.90;;;13.20;99.90;;;;;;5022371;28;20048;-69
2022/09/02 01:17:01;;;;;;;2.38;1.20;;;13.30;99.90;;;;;;5029117;28;20049;-70
2022/09/02 01:19:39;;;;;;;1.65;1.00;;;13.30;99.90;;;;;;5041181;28;20737;-70
2022/09/02 01:22:14;;;;;;;3.42;1.30;;;13.30;99.90;;;;;;5040448;28;20083;-68
2022/09/02 01:24:39;;;;;;;1.98;1.10;;;13.20;99.90;;;;;;5022301;28;20076;-70
2022/09/02 01:27:05;;;;;;;1.48;1.08;;;13.10;99.90;;;;;;5008713;28;20096;-69
2022/09/02 01:29:31;;;;;;;1.77;1.00;;;13.00;99.90;;;;;;5042466;28;20086;-70
2022/09/02 01:31:57;;;;;;;1.45;1.08;;;12.90;99.90;;;;;;5038342;28;20454;-70
2022/09/02 01:34:23;;;;;;;2.25;1.20;;;13.00;99.90;;;;;;5020342;28;20087;-70
2022/09/02 01:36:49;;;;;;;3.20;1.35;;;12.90;99.90;;;;;;5005995;28;20743;-70
2022/09/02 01:39:15;;;;;;;1.65;1.05;;;12.90;99.90;;;;;;5022515;28;20041;-70
2022/09/02 01:41:40;;;;;;;1.55;1.15;;;12.90;99.90;;;;;;5039777;28;20105;-69
2022/09/02 01:44:07;;;;;;;2.78;1.35;;;12.90;99.90;;;;;;5040379;28;20083;-70
2022/09/02 01:46:34;;;;;;;2.17;1.48;;;12.90;99.90;;;;;;5027155;28;20572;-70
2022/09/02 01:48:59;;;;;;;2.15;1.35;;;12.80;99.90;;;;;;5021709;28;20048;-70
2022/09/02 01:51:25;;;;;;;2.63;1.25;;;12.80;99.90;;;;;;5024647;28;20049;-70
2022/09/02 01:53:51;;;;;;;2.38;1.50;;;12.80;99.90;;;;;;5043590;28;20090;-69
2022/09/02 01:56:16;;;;;;;1.90;1.20;;;12.70;99.90;;;;;;5032981;28;20041;-71
2022/09/02 01:58:42;;;;;;;1.75;1.33;;;12.70;99.90;;;;;;5038596;28;20052;-70
2022/09/02 02:01:08;;;;;;;3.90;1.35;;;12.60;99.90;;;;;;5042851;28;20132;-69
2022/09/02 02:03:36;;;;;;;3.40;1.42;;;12.70;99.90;;;;;;5045571;28;20048;-69
2022/09/02 02:06:11;;;;;;;6.78;1.58;;;12.80;99.90;;;;;;5043356;28;20049;-70
2022/09/02 02:08:37;;;;;;;2.58;1.30;;;12.60;99.90;;;;;;5017234;28;20500;-70
2022/09/02 02:11:04;;;;;;;2.35;1.60;;;12.60;99.90;;;;;;5044634;28;20140;-70
2022/09/02 02:13:30;;;;;;;1.50;1.40;;;12.50;99.90;;;;;;5044180;28;20495;-69
2022/09/02 02:15:55;;;;;;;4.20;1.20;;;12.50;99.90;;;;;;5046315;28;20147;-69
2022/09/02 02:18:21;;;;;;;2.60;1.30;;;12.50;99.90;;;;;;5030118;28;20048;-69
2022/09/02 02:20:47;;;;;;;1.55;1.20;;;12.50;99.90;;;;;;5046495;28;20396;-70
2022/09/02 02:23:13;;;;;;;1.92;1.30;;;12.40;99.90;;;;;;5042681;28;20520;-70
2022/09/02 02:25:39;;;;;;;2.17;1.30;;;12.40;99.90;;;;;;5024562;28;20115;-69
2022/09/02 02:28:04;;;;;;;1.83;1.38;;;12.40;99.90;;;;;;5029811;28;20049;-70
2022/09/02 02:30:30;;;;;;;2.58;0.90;;;12.40;99.90;;;;;;5008507;28;20419;-69
2022/09/02 02:32:56;;;;;;;1.45;1.17;;;12.30;99.90;;;;;;5022046;28;20041;-70
2022/09/02 02:35:22;;;;;;;2.85;1.10;;;12.30;99.90;;;;;;5038739;28;20637;-70
2022/09/02 02:37:49;;;;;;;1.58;1.35;;;12.30;99.90;;;;;;5011928;28;20049;-69
2022/09/02 02:40:20;;;;;;;2.35;1.13;;;12.30;99.90;;;;;;5027551;28;20036;-69
2022/09/02 02:42:47;;;;;;;1.20;1.10;;;12.20;99.90;;;;;;5042791;28;20076;-70
2022/09/02 02:45:13;;;;;;;3.38;1.40;;;12.10;99.90;;;;;;5041954;28;20064;-70
2022/09/02 02:47:44;;;;;;;3.17;1.50;;;12.00;99.90;;;;;;5026882;28;20450;-69
2022/09/02 02:50:12;;;;;;;3.28;1.33;;;11.90;99.90;;;;;;5026604;28;20407;-69
2022/09/02 02:52:39;;;;;;;2.28;1.10;;;11.90;99.90;;;;;;5042659;28;20040;-70
2022/09/02 02:55:06;;;;;;;2.75;1.45;;;11.80;99.90;;;;;;5042498;28;20111;-69
2022/09/02 02:57:33;;;;;;;1.55;1.30;;;11.80;99.90;;;;;;5026642;28;20045;-69
2022/09/02 03:00:16;;;;;;;5.10;1.45;;;11.80;99.90;;;;;;5022855;28;20116;-70
2022/09/02 03:02:42;;;;;;;2.60;1.15;;;11.80;99.90;;;;;;5041104;28;20041;-69
2022/09/02 03:05:10;;;;;;;3.10;1.30;;;11.70;99.90;;;;;;5024419;28;20584;-70
2022/09/02 03:07:35;;;;;;;2.55;1.40;;;11.70;99.90;;;;;;4993165;28;20194;-69
2022/09/02 03:10:02;;;;;;;2.72;1.52;;;11.60;99.90;;;;;;5044302;28;21142;-69
2022/09/02 03:12:31;;;;;;;3.33;1.40;;;11.70;99.90;;;;;;5023879;28;20037;-69
2022/09/02 03:14:57;;;;;;;4.47;1.25;;;11.70;99.90;;;;;;5043182;28;20087;-69
2022/09/02 03:17:23;;;;;;;2.03;1.40;;;11.60;99.90;;;;;;5012391;28;20504;-69
2022/09/02 03:19:49;;;;;;;1.77;1.45;;;11.50;99.90;;;;;;5043411;28;20088;-69
2022/09/02 03:22:16;;;;;;;2.05;1.40;;;11.50;99.90;;;;;;5022884;28;20462;-69
2022/09/02 03:24:41;;;;;;;4.07;1.70;;;11.40;99.90;;;;;;5042590;28;20184;-69
2022/09/02 03:27:07;;;;;;;3.70;1.75;;;11.30;99.90;;;;;;5026883;28;20546;-69
2022/09/02 03:29:33;;;;;;;2.17;1.63;;;11.30;99.90;;;;;;5043596;28;20546;-69
2022/09/02 03:31:59;;;;;;;3.35;1.65;;;11.20;99.90;;;;;;5038961;28;20049;-69
2022/09/02 03:34:25;;;;;;;1.90;1.65;;;11.20;99.90;;;;;;5039492;28;20056;-69
2022/09/02 03:36:51;;;;;;;3.15;1.70;;;11.10;99.90;;;;;;5029643;28;20051;-70
2022/09/02 03:39:17;;;;;;;1.65;1.45;;;11.20;99.90;;;;;;5042729;28;20369;-69
2022/09/02 03:41:43;;;;;;;2.65;1.67;;;11.10;99.90;;;;;;5041277;28;20134;-69
2022/09/02 03:44:09;;;;;;;5.18;1.50;;;11.10;99.90;;;;;;5022327;28;20103;-69
2022/09/02 03:46:35;;;;;;;3.75;1.63;;;11.00;99.90;;;;;;5028231;28;20130;-70
2022/09/02 03:49:01;;;;;;;2.95;2.03;;;11.00;99.90;;;;;;5042225;28;20073;-69
2022/09/02 03:51:27;;;;;;;2.20;1.60;;;10.90;99.90;;;;;;5040294;28;20133;-70
2022/09/02 03:53:53;;;;;;;2.85;2.05;;;11.00;99.90;;;;;;5021800;28;20194;-69
2022/09/02 03:56:19;;;;;;;2.20;1.80;;;10.90;99.90;;;;;;5031866;28;20555;-70
2022/09/02 03:58:48;;;;;;;2.75;2.00;;;10.80;99.90;;;;;;5015350;28;20064;-69
2022/09/02 04:01:20;;;;;;;2.75;1.90;;;10.80;99.90;;;;;;5040904;28;20056;-69
2022/09/02 04:03:46;;;;;;;3.63;2.00;;;10.80;99.90;;;;;;5046155;28;20064;-69
2022/09/02 04:06:15;;;;;;;2.97;2.15;;;10.70;99.90;;;;;;5035077;28;20037;-70
2022/09/02 04:08:43;;;;;;;3.13;1.95;;;10.80;99.90;;;;;;5035914;28;20044;-69
2022/09/02 04:11:11;;;;;;;4.70;2.05;;;10.70;99.90;;;;;;5041122;28;20061;-69
2022/09/02 04:13:37;;;;;;;2.85;2.05;;;10.60;99.90;;;;;;5040563;28;20086;-69
2022/09/02 04:16:29;;;;;;;3.28;2.30;;;10.60;99.90;;;;;;5045155;28;20045;-69
2022/09/02 04:18:57;;;;;;;2.55;2.05;;;10.60;99.90;;;;;;5034792;28;20132;-70
2022/09/02 04:21:24;;;;;;;3.97;2.20;;;10.60;99.90;;;;;;5040679;28;20045;-68
2022/09/02 04:23:53;;;;;;;3.78;2.10;;;10.50;99.90;;;;;;5023184;28;20049;-69
2022/09/02 04:26:20;;;;;;;1.80;1.70;;;10.50;99.90;;;;;;5031197;28;20038;-69
2022/09/02 04:28:48;;;;;;;4.00;2.00;;;10.50;99.90;;;;;;5017212;28;20063;-69
2022/09/02 04:31:16;;;;;;;3.38;2.00;;;10.50;99.90;;;;;;5020867;28;20049;-69
2022/09/02 04:33:42;;;;;;;4.88;2.40;;;10.50;99.90;;;;;;5022256;28;20107;-69
2022/09/02 04:36:11;;;;;;;4.85;2.17;;;10.50;99.90;;;;;;5036528;28;20148;-70
2022/09/02 04:38:37;;;;;;;3.22;2.00;;;10.50;99.90;;;;;;5032242;28;20120;-68
2022/09/02 04:41:08;;;;;;;5.68;2.05;;;10.40;99.90;;;;;;5038286;28;20587;-69
2022/09/02 04:43:34;;;;;;;4.00;2.00;;;10.40;99.90;;;;;;5041285;28;20091;-69
2022/09/02 04:46:02;;;;;;;3.75;2.05;;;10.40;99.90;;;;;;5042585;28;20080;-69
2022/09/02 04:48:28;;;;;;;4.15;2.05;;;10.40;99.90;;;;;;5006931;28;20050;-69
2022/09/02 04:50:53;;;;;;;3.67;2.10;;;10.40;99.90;;;;;;5023922;28;20098;-69
2022/09/02 04:53:19;;;;;;;2.00;1.75;;;10.40;99.90;;;;;;5018304;28;20057;-69
2022/09/02 04:55:45;;;;;;;2.30;1.83;;;10.40;99.90;;;;;;5022818;28;20075;-69
2022/09/02 04:58:10;;;;;;;4.05;1.90;;;10.40;99.90;;;;;;5010371;28;20045;-69
2022/09/02 05:00:37;;;;;;;2.03;1.83;;;10.40;99.90;;;;;;5041457;28;20399;-69
2022/09/02 05:03:05;;;;;;;3.15;1.80;;;10.40;99.90;;;;;;5020643;28;20045;-69
2022/09/02 05:05:33;;;;;;;6.13;1.90;;;10.40;99.90;;;;;;5019750;28;20469;-69
2022/09/02 05:07:58;;;;;;;2.03;1.83;;;10.40;99.90;;;;;;5007893;28;20096;-69
2022/09/02 05:10:24;;;;;;;2.10;1.90;;;10.50;99.90;;;;;;5023493;28;20053;-69
2022/09/02 05:12:51;;;;;;;4.70;2.03;;;10.50;99.90;;;;;;5020238;28;20045;-69
2022/09/02 05:15:17;;;;;;;6.22;2.28;;;10.50;99.90;;;;;;5021207;28;20081;-69
2022/09/02 05:17:45;;;;;;;1.85;1.50;;;10.60;99.90;;;;;;5005909;28;20095;-68
2022/09/02 05:20:11;;;;;;;3.40;2.17;;;10.50;99.90;;;;;;5023459;28;20061;-69
2022/09/02 05:22:37;;;;;;;2.25;1.50;;;10.60;99.90;;;;;;5024540;28;20100;-69
2022/09/02 05:25:06;;;;;;;4.32;2.10;;;10.60;99.90;;;;;;5024710;28;20049;-69
2022/09/02 05:27:32;;;;;;;4.25;1.70;;;10.60;99.90;;;;;;5009914;28;20066;-68
2022/09/02 05:29:58;;;;;;;9.70;2.83;;;10.70;99.90;;;;;;5020229;28;20060;-69
2022/09/02 05:32:25;;;;;;;3.60;2.00;;;10.70;99.90;;;;;;5022196;28;20077;-69
2022/09/02 05:34:52;;;;;;;2.40;1.88;;;10.80;99.90;;;;;;5027953;28;20048;-69
2022/09/02 05:37:17;;;;;;;5.78;1.70;;;10.80;99.90;;;;;;5028615;28;20464;-69
2022/09/02 05:39:43;;;;;;;3.15;2.00;;;10.90;99.90;;;;;;5038848;28;20146;-69
2022/09/02 05:42:09;;;;;;;2.97;1.92;;;10.90;99.90;;;;;;5038837;28;20045;-68
2022/09/02 05:44:35;;;;;;;9.85;2.80;;;11.00;99.90;;;;;;5021278;28;20079;-69
2022/09/02 05:47:01;;;;;;;2.72;1.98;;;11.10;99.90;;;;;;5006822;28;20049;-69
2022/09/02 05:49:27;;;;;;;4.05;2.10;;;11.30;99.90;;;;;;5020117;28;20033;-69
2022/09/02 05:51:59;;;;;;;3.17;2.10;;;11.30;99.90;;;;;;5019833;28;20072;-69
2022/09/02 05:54:28;;;;;;;2.80;1.63;;;11.30;99.90;;;;;;5037211;28;20037;-69
2022/09/02 05:56:56;;;;;;;3.90;2.13;;;11.40;99.90;;;;;;5025506;28;20065;-70
2022/09/02 05:59:24;;;;;;;2.33;1.88;;;11.50;99.90;;;;;;5038569;28;20132;-69
2022/09/02 06:01:50;;;;;;;3.33;2.13;;;11.60;99.90;;;;;;5025670;28;20042;-70
2022/09/02 06:04:16;;;;;;;2.58;2.08;;;11.70;99.90;;;;;;5003065;28;20053;-70
2022/09/02 06:06:42;;;;;;;1.83;1.65;;;11.80;99.90;;;;;;5007257;28;20052;-69
2022/09/02 06:09:12;;;;;;;3.13;2.03;;;12.00;99.90;;;;;;5042907;28;20045;-70
2022/09/02 06:11:43;;;;;;;3.15;2.33;;;12.20;99.90;;;;;;5041042;28;20159;-70
2022/09/02 06:14:12;;;;;;;3.15;1.80;;;12.50;99.90;;;;;;5019953;28;20045;-70
2022/09/02 06:16:39;;;;;;;3.25;2.13;;;12.70;99.90;;;;;;5005850;28;20038;-70
2022/09/02 06:19:05;;;;;;;2.10;1.90;;;12.90;99.90;;;;;;5040966;28;20049;-70
2022/09/02 06:21:32;;;;;;;2.92;1.85;;;13.10;99.90;;;;;;5045013;28;20041;-70
2022/09/02 06:23:58;;;;;;;2.90;1.85;;;13.40;99.90;;;;;;5040737;28;20269;-71
2022/09/02 06:26:24;;;;;;;2.28;1.80;;;13.60;99.90;;;;;;5010377;28;20124;-71
2022/09/02 06:28:49;;;;;;;3.35;2.10;;;13.80;99.90;;;;;;5032825;28;20124;-70
2022/09/02 06:31:21;;;;;;;2.03;1.70;;;14.00;99.90;;;;;;5039699;28;20047;-72
2022/09/02 06:33:51;;;;;;;2.10;1.63;;;14.20;99.90;;;;;;5022718;28;20693;-71
2022/09/02 06:36:18;;;;;;;2.33;1.73;;;14.30;99.90;;;;;;5033036;28;20045;-72
2022/09/02 06:38:47;;;;;;;2.50;1.50;;;14.50;99.90;;;;;;5005167;28;20091;-71
2022/09/02 06:41:15;;;;;;;1.60;1.50;;;14.50;99.90;;;;;;5039087;28;20503;-72
2022/09/02 06:43:41;;;;;;;2.92;1.60;;;14.70;99.90;;;;;;5027208;28;20041;-72
2022/09/02 06:46:07;;;;;;;2.40;1.67;;;14.80;99.90;;;;;;5023745;28;20136;-73
2022/09/02 06:48:33;;;;;;;1.90;1.70;;;14.80;99.90;;;;;;5030652;28;20045;-72
2022/09/02 06:51:00;;;;;;;2.97;1.55;;;14.90;99.90;;;;;;5022254;28;20049;-72
2022/09/02 06:53:26;;;;;;;4.18;1.75;;;15.00;99.90;;;;;;5040031;28;20045;-72
2022/09/02 06:55:52;;;;;;;2.70;1.52;;;15.00;99.90;;;;;;5026504;28;20045;-72
2022/09/02 06:58:18;;;;;;;3.95;1.70;;;15.10;99.90;;;;;;5028675;28;20045;-72
2022/09/02 07:00:44;;;;;;;2.42;1.20;;;15.00;99.90;;;;;;5043076;28;20076;-72
2022/09/02 07:06:08;;;;;;;2.95;1.40;;;15.10;99.90;;;;;;5043036;28;20528;-72
2022/09/02 07:08:39;;;;;;;3.70;1.80;;;15.20;99.90;;;;;;5035775;28;20493;-72
2022/09/02 07:11:13;;;;;;;3.92;1.55;;;15.20;99.90;;;;;;5042205;28;20095;-70
2022/09/02 07:13:39;;;;;;;3.13;1.25;;;15.30;99.90;;;;;;5038274;28;20048;-70
2022/09/02 07:16:06;;;;;;;2.80;1.17;;;15.40;99.90;;;;;;5045333;28;20053;-70
2022/09/02 07:18:32;;;;;;;3.15;1.30;;;15.30;99.90;;;;;;5014998;28;20037;-70
2022/09/02 07:20:59;;;;;;;4.97;1.38;;;15.50;99.90;;;;;;5026054;28;20127;-69
2022/09/02 07:23:24;;;;;;;4.82;1.40;;;15.50;99.90;;;;;;5045404;28;20080;-69
2022/09/02 07:25:50;;;;;;;2.67;1.33;;;15.60;99.90;;;;;;5025657;28;20532;-69
2022/09/02 07:28:16;;;;;;;3.17;1.40;;;15.70;99.90;;;;;;5024812;28;20071;-69
2022/09/02 07:30:43;;;;;;;4.85;1.30;;;15.80;99.90;;;;;;5043266;28;20361;-70
2022/09/02 07:33:12;;;;;;;2.10;1.40;;;15.80;99.90;;;;;;5021216;28;20527;-70
2022/09/02 07:35:40;;;;;;;1.98;1.30;;;16.00;99.90;;;;;;5044770;28;20092;-70
2022/09/02 07:38:07;;;;;;;2.03;1.20;;;16.00;99.90;;;;;;5026482;28;20046;-70
2022/09/02 07:40:35;;;;;;;2.47;1.30;;;16.10;99.90;;;;;;5041671;28;20496;-71
2022/09/02 07:43:03;;;;;;;4.47;1.15;;;16.20;99.90;;;;;;5040944;28;20202;-70
2022/09/02 07:45:30;;;;;;;2.85;1.35;;;16.20;99.90;;;;;;5043276;28;20555;-70
2022/09/02 07:47:56;;;;;;;3.33;1.50;;;16.30;99.90;;;;;;5028826;28;20051;-69
2022/09/02 07:50:25;;;;;;;4.97;1.17;;;16.40;99.90;;;;;;5040978;28;20482;-70
2022/09/02 07:52:53;;;;;;;4.57;1.30;;;16.50;99.90;;;;;;5041343;28;20474;-70
2022/09/02 07:55:20;;;;;;;3.88;1.63;;;16.50;99.90;;;;;;5043069;28;20127;-71
2022/09/02 07:57:46;;;;;;;4.18;1.40;;;16.50;99.90;;;;;;5006724;28;20045;-71
2022/09/02 08:00:15;;;;;;;2.80;1.20;;;16.60;99.90;;;;;;5023593;28;20064;-70
2022/09/02 08:02:41;;;;;;;4.88;1.50;;;16.70;99.90;;;;;;5036795;28;20045;-71
2022/09/02 08:05:07;;;;;;;3.25;1.17;;;16.80;99.90;;;;;;5043834;28;20067;-70
2022/09/02 08:07:33;;;;;;;3.40;1.38;;;16.90;99.90;;;;;;5009240;28;20057;-70
2022/09/02 08:09:59;;;;;;;3.67;1.20;;;17.10;99.90;;;;;;5041336;28;20048;-70
2022/09/02 08:12:26;;;;;;;3.90;1.17;;;17.10;99.90;;;;;;5022589;28;20060;-70
2022/09/02 08:14:54;;;;;;;2.78;1.38;;;17.20;99.90;;;;;;5043163;28;20098;-70
2022/09/02 08:17:20;;;;;;;4.45;1.63;;;17.30;99.90;;;;;;5028586;28;20037;-70
2022/09/02 08:19:46;;;;;;;2.47;1.08;;;17.40;99.90;;;;;;5046558;28;20045;-70
2022/09/02 08:22:11;;;;;;;1.52;0.90;;;17.40;99.90;;;;;;5042710;28;20161;-71
2022/09/02 08:24:37;;;;;;;2.15;1.13;;;17.50;99.90;;;;;;5044039;28;20066;-71
2022/09/02 08:27:03;;;;;;;2.30;1.20;;;17.70;99.90;;;;;;5022556;28;20041;-69
2022/09/02 08:29:30;;;;;;;2.22;0.90;;;17.70;99.90;;;;;;5024594;28;20508;-70
2022/09/02 08:31:56;;;;;;;8.02;1.33;;;17.90;99.90;;;;;;5043306;28;20079;-71
2022/09/02 08:34:21;;;;;;;2.30;0.93;;;17.80;99.90;;;;;;5011428;28;20076;-70
2022/09/02 08:36:47;;;;;;;6.07;0.93;;;18.00;99.90;;;;;;5026491;28;20038;-70
2022/09/02 08:39:13;;;;;;;3.45;1.10;;;18.00;99.90;;;;;;5038427;28;20372;-71
2022/09/02 08:42:06;;;;;;;5.53;0.90;;;18.10;99.90;;;;;;5022765;28;20041;-70
2022/09/02 08:44:36;;;;;;;7.18;1.40;;;18.20;99.90;;;;;;5040622;28;20050;-71
2022/09/02 08:47:05;;;;;;;2.88;1.40;;;18.20;99.90;;;;;;5025177;28;20045;-71
2022/09/02 08:49:50;;;;;;;2.97;1.00;;;18.30;99.90;;;;;;5019849;28;20041;-70
2022/09/02 08:52:37;;;;;;;3.13;0.90;;;18.40;99.90;;;;;;5021388;28;20098;-70
2022/09/02 08:55:05;;;;;;;3.78;1.30;;;18.60;99.90;;;;;;5042006;28;20049;-70
2022/09/02 08:57:31;;;;;;;3.67;1.08;;;18.60;99.90;;;;;;5022447;28;20084;-69
2022/09/02 09:00:00;;;;;;;2.83;0.93;;;18.60;99.90;;;;;;5005661;28;20049;-70
2022/09/02 09:03:09;;;;;;;1.58;0.85;;;18.70;99.90;;;;;;5022394;28;20045;-70
2022/09/02 09:05:49;;;;;;;2.10;0.85;;;18.80;99.90;;;;;;4996794;28;20052;-70
2022/09/02 09:08:50;;;;;;;2.85;1.20;;;18.90;99.90;;;;;;5023297;28;20630;-70
2022/09/02 09:11:28;;;;;;;3.28;1.20;;;18.90;99.90;;;;;;5028128;28;20504;-71
2022/09/02 09:14:19;;;;;;;5.72;1.13;;;19.00;99.90;;;;;;5022366;28;20544;-68
2022/09/02 09:17:01;;;;;;;1.70;0.90;;;19.10;99.90;;;;;;5030640;28;20051;-70
2022/09/02 09:19:33;;;;;;;3.80;1.20;;;19.30;99.90;;;;;;5024823;28;20063;-70
2022/09/02 09:22:02;;;;;;;3.60;0.95;;;19.40;99.90;;;;;;5041007;28;20451;-71
2022/09/02 09:24:43;;;;;;;2.60;0.95;;;19.50;99.90;;;;;;5042290;28;20049;-72
2022/09/02 09:27:13;;;;;;;2.50;0.90;;;19.50;99.90;;;;;;5003738;28;20045;-71
2022/09/02 09:29:39;;;;;;;3.43;0.90;;;19.50;99.90;;;;;;5042284;28;20052;-70
2022/09/02 09:32:12;;;;;;;2.20;1.10;;;19.50;99.90;;;;;;5041908;28;20048;-71
2022/09/02 09:35:00;;;;;;;3.92;0.93;;;19.70;99.90;;;;;;5018263;28;20045;-71
2022/09/02 09:37:39;;;;;;;4.30;1.00;;;19.90;99.90;;;;;;5019563;28;20045;-70
2022/09/02 09:40:27;;;;;;;1.65;0.90;;;20.00;99.90;;;;;;5024155;28;20059;-71
2022/09/02 09:43:04;;;;;;;3.22;1.00;;;20.20;99.90;;;;;;5028676;28;20404;-72
2022/09/02 09:45:37;;;;;;;1.52;1.10;;;20.30;99.90;;;;;;5017750;28;20068;-71
2022/09/02 09:48:15;;;;;;;2.88;0.95;;;20.30;99.90;;;;;;5000240;28;20049;-71
2022/09/02 09:50:45;;;;;;;1.80;0.85;;;20.40;99.90;;;;;;5018478;28;20049;-71
2022/09/02 09:53:21;;;;;;;1.55;1.00;;;20.30;99.90;;;;;;5021634;28;20054;-71
2022/09/02 09:56:12;;;;;;;4.32;0.90;;;20.40;99.90;;;;;;5020452;28;20497;-72
2022/09/02 09:58:40;;;;;;;1.83;0.70;;;20.30;99.90;;;;;;5013806;28;20524;-72
2022/09/02 10:01:33;;;;;;;4.28;0.90;;;20.50;99.90;;;;;;5015198;28;20056;-71
2022/09/02 10:04:24;;;;;;;2.83;0.90;;;20.50;99.90;;;;;;5020828;28;20037;-72
2022/09/02 10:06:49;;;;;;;4.68;0.75;;;20.50;99.90;;;;;;5003550;28;20564;-73
2022/09/02 10:09:21;;;;;;;3.03;0.85;;;20.70;99.90;;;;;;5018531;28;20493;-72
2022/09/02 10:12:06;;;;;;;;;;;21.00;99.90;;;;;;5026215;28;20088;-71
2022/09/02 10:14:38;;;;;;;1.88;0.85;;;20.90;99.90;;;;;;5021638;28;20016;-71
2022/09/02 10:17:19;;;;;;;3.35;1.00;;;21.10;99.90;;;;;;5007900;28;20505;-74
2022/09/02 10:20:03;;;;;;;5.88;1.20;;;21.00;99.90;;;;;;5009171;28;20388;-71
2022/09/02 10:22:46;;;;;;;2.78;0.80;;;21.00;99.90;;;;;;5022481;28;20050;-71
2022/09/02 10:25:51;;;;;;;2.00;0.90;;;21.00;99.90;;;;;;5022844;28;20064;-72
2022/09/02 10:28:34;;;;;;;3.58;0.85;;;21.20;99.90;;;;;;5008055;28;20049;-73
2022/09/02 10:31:30;;;;;;;4.22;1.00;;;21.20;99.90;;;;;;5022539;28;20573;-72
2022/09/02 10:34:38;;;;;;;3.80;1.10;;;21.30;99.90;;;;;;5022792;28;20107;-72
2022/09/02 10:37:13;;;;;;;5.35;0.90;;;21.40;99.90;;;;;;5008580;28;20119;-73
2022/09/02 10:40:11;;;;;;;3.20;0.98;;;21.50;98.20;;;;;;5022426;28;20487;-74
2022/09/02 10:42:45;;;;;;;6.22;0.90;;;21.30;97.70;;;;;;5024392;28;20124;-71
2022/09/02 10:45:45;;;;;;;5.70;0.82;;;21.30;98.00;;;;;;5033884;28;20520;-73
2022/09/02 10:48:52;;;;;;;2.35;0.85;;;21.30;97.60;;;;;;5006800;28;20099;-71
2022/09/02 10:51:36;;;;;;;1.77;0.60;;;21.50;98.30;;;;;;5024297;28;20093;-71
2022/09/02 10:54:35;;;;;;;2.72;0.50;;;21.50;98.60;;;;;;5043665;28;20140;-73
2022/09/02 10:57:35;;;;;;;5.72;0.95;;;21.60;97.90;;;;;;5002862;28;20222;-72
2022/09/02 11:00:10;;;;;;;2.40;0.70;;;21.80;96.90;;;;;;4994971;28;20038;-72
2022/09/02 11:02:39;;;;;;;4.03;0.80;;;21.70;95.80;;;;;;5024022;28;20045;-72
2022/09/02 11:05:13;;;;;;;1.95;0.57;;;21.80;95.70;;;;;;5024309;28;20128;-72
2022/09/02 11:08:04;;;;;;;3.17;0.40;;;21.70;94.80;;;;;;5006757;28;20124;-71
2022/09/02 11:10:51;;;;;;;2.63;0.70;;;21.80;95.50;;;;;;5017532;28;20046;-72
2022/09/02 11:14:06;;;;;;;4.30;0.70;;;21.80;96.10;;;;;;5025714;28;20053;-71
2022/09/02 11:16:44;;;;;;;3.75;0.80;;;21.80;96.60;;;;;;4980979;28;20144;-72
2022/09/02 11:19:34;;;;;;;5.55;0.73;;;21.90;96.10;;;;;;5023008;28;20041;-71
2022/09/02 11:22:12;;;;;;;3.45;0.70;;;21.90;95.70;;;;;;5021840;28;20095;-72
2022/09/02 11:25:22;;;;;;;4.25;0.60;;;21.80;93.70;;;;;;5024370;28;20136;-71
2022/09/02 11:27:57;;;;;;;5.15;0.75;;;22.00;96.20;;;;;;4986633;28;20041;-71
2022/09/02 11:30:38;;;;;;;4.65;1.00;;;22.10;94.20;;;;;;5023717;28;20509;-71
2022/09/02 11:33:42;;;;;;;3.95;0.70;;;21.90;95.00;;;;;;5021703;28;20052;-72
2022/09/02 11:36:08;;;;;;;4.47;0.55;;;22.00;94.40;;;;;;5024047;28;20052;-74
2022/09/02 11:38:44;;;;;;;1.45;0.40;;;22.10;92.00;;;;;;5013596;28;20252;-71
2022/09/02 11:41:30;;;;;;;3.28;0.77;;;22.10;92.00;;;;;;5021620;28;20128;-72
2022/09/02 11:44:15;;;;;;;0.90;0.57;;;22.10;93.60;;;;;;5021913;28;20041;-70
2022/09/02 11:47:25;;;;;;;3.88;0.77;;;22.10;94.10;;;;;;4989572;28;20519;-72
2022/09/02 11:50:24;;;;;;;3.03;0.60;;;22.10;92.60;;;;;;5020563;28;20476;-72
2022/09/02 11:53:11;;;;;;;2.90;0.73;;;22.30;93.10;;;;;;5022779;28;20129;-71
2022/09/02 11:55:46;;;;;;;4.65;0.63;;;22.40;92.90;;;;;;5020948;28;20045;-73
2022/09/02 11:58:33;;;;;;;6.32;0.77;;;22.30;92.40;;;;;;5003865;28;20057;-71
2022/09/02 12:01:13;;;;;;;4.10;0.60;;;22.40;92.80;;;;;;5021332;28;20088;-71
2022/09/02 12:04:03;;;;;;;4.10;0.60;;;22.50;93.80;;;;;;5022596;28;20084;-72
2022/09/02 12:06:29;;;;;;;2.80;0.68;;;22.40;91.90;;;;;;5008378;28;20097;-73
2022/09/02 12:08:56;;;;;;;4.65;0.80;;;22.50;92.70;;;;;;5015192;28;20108;-71
2022/09/02 12:11:44;;;;;;;3.15;0.70;;;22.60;92.20;;;;;;5021086;28;20033;-71
2022/09/02 12:14:20;;;;;;;2.88;0.70;;;22.40;91.50;;;;;;5023685;28;20138;-72
2022/09/02 12:17:07;;;;;;;2.38;0.60;;;22.60;92.70;;;;;;5005400;28;20038;-72
2022/09/02 12:19:42;;;;;;;2.45;0.70;;;22.60;93.00;;;;;;5019827;28;20192;-71
2022/09/02 12:22:14;;;;;;;4.75;0.80;;;22.60;92.20;;;;;;5022493;28;20049;-71
2022/09/02 12:25:00;;;;;;;3.03;0.68;;;22.70;92.60;;;;;;5022653;28;20486;-71
2022/09/02 12:27:35;;;;;;;2.65;0.70;;;22.70;91.60;;;;;;5008325;28;20048;-70
2022/09/02 12:30:04;;;;;;;3.33;0.70;;;22.70;92.90;;;;;;5022356;28;20042;-71
2022/09/02 12:32:45;;;;;;;2.00;0.60;;;22.70;91.70;;;;;;5020551;28;20045;-72
2022/09/02 12:35:31;;;;;;;2.45;0.77;;;22.80;92.20;;;;;;5020575;28;20049;-71
2022/09/02 12:38:24;;;;;;;1.05;0.60;;;22.70;91.30;;;;;;5004856;28;20070;-71
2022/09/02 12:40:57;;;;;;;2.90;0.65;;;22.70;92.20;;;;;;5009235;28;20060;-71
2022/09/02 12:43:31;;;;;;;2.90;0.50;;;22.80;91.10;;;;;;5020856;28;20220;-70
2022/09/02 12:46:16;;;;;;;3.25;0.73;;;22.80;91.30;;;;;;5040489;28;20050;-71
2022/09/02 12:48:51;;;;;;;2.58;0.70;;;22.70;92.10;;;;;;5004287;28;20033;-71
2022/09/02 12:51:51;;;;;;;5.18;0.80;;;22.90;90.80;;;;;;5041396;28;20056;-71
2022/09/02 12:54:18;;;;;;;2.80;0.63;;;23.00;90.60;;;;;;5038024;28;20519;-72
2022/09/02 12:56:48;;;;;;;3.03;0.60;;;23.00;90.30;;;;;;5003312;28;20398;-71
2022/09/02 12:59:35;;;;;;;2.67;0.75;;;23.00;90.50;;;;;;5018290;28;20056;-71
2022/09/02 13:02:19;;;;;;;3.88;0.50;;;23.00;90.00;;;;;;5025245;28;20040;-71
2022/09/02 13:05:06;;;;;;;3.97;0.70;;;23.00;88.70;;;;;;5043007;28;20047;-71
2022/09/02 13:07:45;;;;;;;2.17;0.45;;;23.00;90.50;;;;;;5021887;28;20041;-70
2022/09/02 13:10:39;;;;;;;2.88;0.60;;;23.10;90.40;;;;;;5040246;28;20045;-72
2022/09/02 13:13:42;;;;;;;3.55;0.70;;;23.10;89.30;;;;;;5020833;28;20092;-72
2022/09/02 13:16:29;;;;;;;4.25;0.85;;;23.20;86.40;;;;;;5031996;28;20049;-73
2022/09/02 13:19:38;;;;;;;2.85;0.47;;;23.20;87.50;;;;;;5044679;28;20102;-71